Accueil
METAR-TAF:

METAR-TAF

Aéroports :

Plaisance, Italie

latitude: 44-55N, longitude: 009-44E, altitude: 134 m

Observation

Le bulletin a été fait il y a 42 minutes, à 12:55 UTC
Vent 3 kt de ouest/nord-ouest
Température 13°C
Humidité 100%
Pression 1009 hPa
Visibilité: 1200 m
Nuages épars à une hauteur de 500 ft
Nuages fragmentés à une hauteur de 1500 ft
pluie faible, brume

METAR: LIMS 221255Z 29003KT 1200 R30//// R12//// -RA BR SCT005 BKN015 13/13 Q1009 RMK OVC VIS MIN 1200 WIND THR30 27003KT AMB

Heure: 15:37 (13:37 UTC)


TAF: absent

Observations et prévisions météorologiques de plus de 4000 aéroports (messages METAR et TAF).

Les stations disponibles sont représentées par des disques jaunes et rouges sur la carte.

Passer la souris dessus pour voir le nom de la station.

Cliquer dessus pour voir les observations et prévisions météorologiques.

Pour changer de carte: cliquez sur les boutons verts avec une croix noire pour zoomer, sur le bouton vert avec un tiret pour effectuer un zoom arrière, ou sur les flèches vertes pour les cartes adjacentes.


METAR-TAF: